Time;durP1;ratioP1;P1;durP2;ratioP2;P2;SDS_P1;SDS_P2;PMS_P1;PMS_P2;Temp;Humidity;BMP_temperature;BMP_pressure;BME280_temperature;BME280_humidity;BME280_pressure;Samples;Min_cycle;Max_cycle;Signal;HPM_P1;HPM_P2
2021/03/20 00:01:05;;;;;;;3.40;3.00;;;;;;;5.60;76.52;99864.91;5056615;28;20488;-68
2021/03/20 00:03:31;;;;;;;3.15;2.88;;;;;;;5.67;77.13;99856.88;5039797;28;20414;-68
2021/03/20 00:06:01;;;;;;;3.63;3.22;;;;;;;5.67;77.37;99865.16;5038915;28;20128;-68
2021/03/20 00:08:27;;;;;;;3.28;2.83;;;;;;;5.61;76.73;99866.53;5039087;28;20476;-68
2021/03/20 00:10:54;;;;;;;2.78;2.58;;;;;;;5.55;77.04;99867.06;5039096;28;20036;-68
2021/03/20 00:13:22;;;;;;;4.53;3.25;;;;;;;5.54;77.42;99871.78;5056842;28;20043;-68
2021/03/20 00:15:48;;;;;;;3.65;3.35;;;;;;;5.60;77.70;99870.44;5039623;28;20064;-68
2021/03/20 00:18:14;;;;;;;3.67;2.58;;;;;;;5.64;76.81;99870.53;5035126;28;20104;-68
2021/03/20 00:20:45;;;;;;;3.50;2.22;;;;;;;5.42;76.77;99841.34;5035337;28;20064;-69
2021/03/20 00:23:10;;;;;;;2.45;2.25;;;;;;;5.58;76.27;99861.66;5036813;28;20065;-69
2021/03/20 00:25:36;;;;;;;4.32;2.30;;;;;;;5.60;77.30;99858.59;5035350;28;20119;-68
2021/03/20 00:28:07;;;;;;;2.63;2.42;;;;;;;5.68;77.06;99863.22;5036204;28;20029;-69
2021/03/20 00:30:33;;;;;;;2.60;2.40;;;;;;;5.58;76.87;99856.13;5036082;28;20128;-68
2021/03/20 00:32:59;;;;;;;2.25;2.08;;;;;;;5.60;76.73;99856.63;5035484;28;20120;-68
2021/03/20 00:35:25;;;;;;;2.17;1.98;;;;;;;5.65;77.35;99859.19;5035116;28;20037;-68
2021/03/20 00:37:52;;;;;;;1.85;1.75;;;;;;;5.70;77.08;99870.03;5035316;28;20044;-68
2021/03/20 00:40:22;;;;;;;2.58;2.00;;;;;;;5.82;77.16;99860.19;5036316;28;20029;-68
2021/03/20 00:42:48;;;;;;;3.78;1.85;;;;;;;5.73;77.45;99852.75;5035514;28;20122;-68
2021/03/20 00:45:15;;;;;;;2.13;1.98;;;;;;;5.73;77.43;99849.19;5034878;28;20211;-68
2021/03/20 00:47:42;;;;;;;2.22;2.03;;;;;;;5.73;77.79;99849.19;5035180;28;20033;-68
2021/03/20 00:50:10;;;;;;;4.28;2.15;;;;;;;5.78;77.91;99849.81;5034787;28;20022;-68
2021/03/20 00:52:35;;;;;;;3.90;2.10;;;;;;;5.82;76.96;99851.91;5035253;28;20030;-68
2021/03/20 00:55:01;;;;;;;2.72;1.70;;;;;;;5.79;77.02;99848.66;5035458;28;20376;-68
2021/03/20 00:57:27;;;;;;;2.13;1.92;;;;;;;5.74;76.55;99848.84;5034633;28;20033;-68
2021/03/20 00:59:52;;;;;;;1.52;1.42;;;;;;;5.58;75.74;99842.34;5035172;28;20128;-68
2021/03/20 01:02:18;;;;;;;1.63;1.52;;;;;;;5.51;76.16;99850.38;5034619;28;20434;-68
2021/03/20 01:04:44;;;;;;;2.10;1.55;;;;;;;5.47;76.19;99849.41;5034573;28;20028;-68
2021/03/20 01:07:10;;;;;;;2.38;2.17;;;;;;;5.35;76.66;99841.88;5034805;28;20096;-68
2021/03/20 01:09:35;;;;;;;2.00;1.80;;;;;;;5.21;76.31;99853.16;5034717;28;20511;-68
2021/03/20 01:12:01;;;;;;;2.72;2.13;;;;;;;5.26;76.64;99844.69;5034385;28;20033;-68
2021/03/20 01:14:27;;;;;;;1.83;1.73;;;;;;;5.32;77.44;99838.97;5034787;28;20128;-68
2021/03/20 01:16:52;;;;;;;3.65;1.92;;;;;;;5.45;78.15;99835.16;5034584;28;20539;-68
2021/03/20 01:19:18;;;;;;;2.15;1.80;;;;;;;5.68;77.95;99832.84;5033739;28;20431;-68
2021/03/20 01:21:44;;;;;;;1.60;1.50;;;;;;;5.52;76.72;99832.66;5034526;28;20131;-68
2021/03/20 01:24:10;;;;;;;3.15;1.85;;;;;;;5.38;76.11;99829.34;5034148;28;20030;-68
2021/03/20 01:26:36;;;;;;;1.88;1.77;;;;;;;5.37;76.56;99828.56;5034093;28;20040;-68
2021/03/20 01:29:02;;;;;;;1.50;1.40;;;;;;;5.41;76.04;99829.50;5034266;28;20033;-69
2021/03/20 01:31:28;;;;;;;1.48;1.38;;;;;;;5.48;76.23;99823.44;5034174;28;20038;-69
2021/03/20 01:33:53;;;;;;;1.73;1.40;;;;;;;5.43;76.30;99815.34;5033693;28;20052;-68
2021/03/20 01:36:19;;;;;;;2.25;1.30;;;;;;;5.37;76.54;99817.50;5033486;28;20056;-68
2021/03/20 01:38:44;;;;;;;1.40;1.10;;;;;;;5.29;76.29;99807.38;5033910;28;20037;-68
2021/03/20 01:41:18;;;;;;;0.93;0.93;;;;;;;5.28;76.28;99802.19;5034953;28;20083;-68
2021/03/20 01:43:44;;;;;;;1.10;1.10;;;;;;;5.44;76.56;99800.44;5034970;28;20029;-68
2021/03/20 01:46:38;;;;;;;1.52;1.42;;;;;;;5.46;77.06;99798.94;5033720;28;20095;-68
2021/03/20 01:49:19;;;;;;;1.83;1.02;;;;;;;5.45;77.65;99799.28;5033700;28;20033;-68
2021/03/20 01:52:17;;;;;;;1.25;1.15;;;;;;;5.49;77.99;99778.16;5035201;28;20115;-68
2021/03/20 01:55:02;;;;;;;1.40;1.30;;;;;;;5.64;78.26;99783.03;5034032;28;20534;-68
2021/03/20 01:57:37;;;;;;;2.38;2.17;;;;;;;5.64;78.15;99780.25;5033726;28;20388;-68
2021/03/20 02:00:46;;;;;;;0.98;0.98;;;;;;;5.64;77.74;99788.53;5033186;28;20029;-68
2021/03/20 02:03:17;;;;;;;0.90;0.90;;;;;;;5.53;78.72;99776.31;5029073;28;20045;-68
2021/03/20 02:05:43;;;;;;;0.90;0.90;;;;;;;5.52;78.30;99794.03;5034221;28;20037;-69
2021/03/20 02:08:12;;;;;;;1.00;0.80;;;;;;;5.45;78.51;99785.50;5033633;28;20022;-68
2021/03/20 02:10:41;;;;;;;0.80;0.80;;;;;;;5.40;77.95;99783.75;5034544;28;20033;-68
2021/03/20 02:13:12;;;;;;;1.00;0.90;;;;;;;5.40;78.25;99783.75;5033770;28;20111;-68
2021/03/20 02:15:45;;;;;;;1.02;0.93;;;;;;;5.37;78.81;99773.38;5033165;28;20175;-69
2021/03/20 02:18:34;;;;;;;0.82;0.82;;;;;;;5.40;77.87;99783.75;5032988;28;20053;-69
2021/03/20 02:21:21;;;;;;;0.70;0.70;;;;;;;5.24;77.23;99789.06;5033668;28;20033;-69
2021/03/20 02:24:25;;;;;;;0.60;0.60;;;;;;;5.31;77.23;99784.97;5033608;28;20041;-69
2021/03/20 02:27:28;;;;;;;1.13;1.02;;;;;;;5.38;77.55;99775.00;5022359;28;20048;-69
2021/03/20 02:30:11;;;;;;;0.70;0.70;;;;;;;5.22;78.09;99760.22;5032957;28;20017;-69
2021/03/20 02:32:40;;;;;;;0.77;0.77;;;;;;;5.27;77.75;99793.09;5033764;28;20034;-69
2021/03/20 02:35:18;;;;;;;0.75;0.75;;;;;;;5.21;77.54;99786.97;5034408;28;20482;-69
2021/03/20 02:38:26;;;;;;;2.17;1.20;;;;;;;5.23;77.11;99779.19;5033189;28;20056;-69
2021/03/20 02:41:29;;;;;;;2.40;1.75;;;;;;;5.28;76.76;99780.13;5032825;28;20084;-69
2021/03/20 02:44:16;;;;;;;1.00;0.90;;;;;;;5.32;77.38;99764.50;5032686;28;20064;-69
2021/03/20 02:46:55;;;;;;;0.70;0.70;;;;;;;5.52;77.49;99769.19;5032915;28;20033;-69
2021/03/20 02:49:29;;;;;;;1.25;0.70;;;;;;;5.35;77.37;99748.09;5033989;28;20060;-69
2021/03/20 02:52:10;;;;;;;0.60;0.60;;;;;;;5.40;77.96;99760.88;5032648;28;20041;-69
2021/03/20 02:54:54;;;;;;;1.05;0.93;;;;;;;5.20;77.99;99738.47;5032518;28;20033;-69
2021/03/20 02:57:31;;;;;;;1.75;1.45;;;;;;;5.35;78.70;99770.16;5032587;28;20034;-69
2021/03/20 03:00:12;;;;;;;4.28;2.70;;;;;;;5.39;78.92;99762.00;5032802;28;20025;-69
2021/03/20 03:02:39;;;;;;;2.25;1.92;;;;;;;5.39;79.07;99762.00;5032443;28;20029;-69
2021/03/20 03:05:15;;;;;;;1.77;1.48;;;;;;;5.43;79.81;99754.66;5033150;28;20077;-69
2021/03/20 03:07:44;;;;;;;1.30;1.20;;;;;;;5.43;79.75;99757.41;5032454;28;20029;-69
2021/03/20 03:10:20;;;;;;;2.10;1.52;;;;;;;5.39;78.79;99762.00;5032739;28;20464;-69
2021/03/20 03:12:50;;;;;;;2.40;1.67;;;;;;;5.47;78.96;99764.69;5032336;28;20025;-69
2021/03/20 03:15:28;;;;;;;3.58;2.63;;;;;;;5.29;78.69;99770.69;5033615;28;20511;-69
2021/03/20 03:18:29;;;;;;;1.98;1.77;;;;;;;5.38;79.25;99763.13;5032108;28;20064;-69
2021/03/20 03:20:58;;;;;;;1.38;1.00;;;;;;;5.32;79.11;99759.78;5029959;28;20064;-69
2021/03/20 03:23:27;;;;;;;0.68;0.68;;;;;;;5.32;79.64;99758.97;5032332;28;20069;-69
2021/03/20 03:26:08;;;;;;;1.05;0.98;;;;;;;5.37;78.36;99756.00;5032594;28;20029;-69
2021/03/20 03:28:34;;;;;;;0.60;0.60;;;;;;;5.32;78.88;99748.75;5033087;28;20041;-69
2021/03/20 03:31:05;;;;;;;0.90;0.90;;;;;;;5.30;78.91;99755.75;5032541;28;20034;-69
2021/03/20 03:33:51;;;;;;;0.75;0.75;;;;;;;5.31;78.28;99752.66;5032741;28;20114;-69
2021/03/20 03:36:20;;;;;;;0.93;0.93;;;;;;;5.36;76.56;99755.22;5033482;28;20030;-69
2021/03/20 03:38:55;;;;;;;1.20;1.13;;;;;;;5.40;72.66;99749.81;5032462;28;20025;-69
2021/03/20 03:41:28;;;;;;;1.50;1.40;;;;;;;5.31;74.19;99747.13;5032435;28;20041;-69
2021/03/20 03:43:54;;;;;;;1.27;1.17;;;;;;;5.37;73.16;99762.34;5032167;28;20033;-69
2021/03/20 03:46:30;;;;;;;1.80;1.70;;;;;;;5.28;74.68;99763.59;5032389;28;20032;-69
2021/03/20 03:48:59;;;;;;;1.88;1.77;;;;;;;5.32;74.96;99753.47;5032664;28;20372;-69
2021/03/20 03:51:26;;;;;;;3.55;3.22;;;;;;;5.33;74.03;99755.09;5032374;28;20524;-69
2021/03/20 03:53:54;;;;;;;11.70;9.40;;;;;;;5.22;73.80;99755.50;5033280;28;20036;-69
2021/03/20 03:57:05;;;;;;;6.95;5.57;;;;;;;5.34;72.72;99756.72;5033541;28;20030;-70
2021/03/20 04:00:08;;;;;;;6.63;5.78;;;;;;;5.43;71.75;99755.50;5028504;28;20026;-69
2021/03/20 04:02:52;;;;;;;3.53;2.92;;;;;;;5.39;71.18;99754.53;5036715;28;20034;-69
2021/03/20 04:06:02;;;;;;;16.88;12.50;;;;;;;5.39;71.49;99753.75;5035751;28;20037;-69
2021/03/20 04:08:37;;;;;;;2.65;2.45;;;;;;;5.47;70.33;99756.41;5025116;28;20038;-69
2021/03/20 04:11:20;;;;;;;1.63;1.52;;;;;;;5.46;70.48;99756.75;5035545;28;20033;-69
2021/03/20 04:13:53;;;;;;;2.40;2.03;;;;;;;5.34;72.04;99767.75;5036714;28;20099;-69
2021/03/20 04:16:35;;;;;;;1.40;1.27;;;;;;;5.32;72.50;99762.53;5036026;28;20033;-69
2021/03/20 04:19:09;;;;;;;1.13;1.05;;;;;;;5.34;72.51;99767.75;5035090;28;20052;-69
2021/03/20 04:21:39;;;;;;;1.20;1.10;;;;;;;5.27;73.20;99762.75;5035563;28;20044;-69
2021/03/20 04:24:23;;;;;;;1.10;1.10;;;;;;;5.34;72.22;99776.03;5036116;28;20135;-69
2021/03/20 04:26:57;;;;;;;1.83;1.55;;;;;;;5.44;72.60;99779.16;5035841;28;20064;-69
2021/03/20 04:29:30;;;;;;;1.10;1.10;;;;;;;5.33;73.33;99782.69;5034949;28;20037;-69
2021/03/20 04:32:34;;;;;;;1.67;1.43;;;;;;;5.32;73.00;99783.81;5035259;28;20029;-69
2021/03/20 04:35:05;;;;;;;1.30;1.13;;;;;;;5.37;72.09;99783.59;5014192;28;20285;-69
2021/03/20 04:37:35;;;;;;;2.00;1.83;;;;;;;5.39;73.45;99786.84;5028815;28;20272;-69
2021/03/20 04:40:04;;;;;;;4.03;2.17;;;;;;;5.33;73.71;99777.16;5036035;28;20540;-69
2021/03/20 04:42:34;;;;;;;2.83;1.25;;;;;;;5.37;73.57;99791.88;5034813;28;20033;-69
2021/03/20 04:45:07;;;;;;;4.68;3.97;;;;;;;5.46;72.47;99776.88;5035935;28;20040;-69
2021/03/20 04:47:36;;;;;;;9.25;6.70;;;;;;;5.19;72.83;99749.84;5036157;28;20044;-69
2021/03/20 04:50:16;;;;;;;11.25;9.02;;;;;;;5.38;73.76;99774.19;5034794;28;20030;-70
2021/03/20 04:52:45;;;;;;;29.00;19.30;;;;;;;5.40;73.42;99782.94;5035282;28;20400;-69
2021/03/20 04:55:12;;;;;;;26.48;16.58;;;;;;;5.40;72.95;99782.94;5034647;28;20032;-70
2021/03/20 04:57:46;;;;;;;34.92;22.58;;;;;;;5.48;72.38;99780.09;5035287;28;20034;-70
2021/03/20 05:00:33;;;;;;;36.97;23.58;;;;;;;5.42;72.31;99775.91;5034908;28;20441;-70
2021/03/20 05:03:10;;;;;;;19.92;13.75;;;;;;;5.37;73.01;99778.09;5034574;28;20036;-70
2021/03/20 05:05:50;;;;;;;11.25;6.95;;;;;;;5.25;72.39;99754.81;5034545;28;20036;-70
2021/03/20 05:08:39;;;;;;;3.78;2.78;;;;;;;5.40;72.62;99774.66;5034460;28;20152;-70
2021/03/20 05:11:31;;;;;;;2.75;2.08;;;;;;;5.34;72.15;99773.25;5032726;28;20052;-70
2021/03/20 05:14:02;;;;;;;1.58;1.48;;;;;;;5.26;73.33;99769.41;5034323;28;20136;-70
2021/03/20 05:16:33;;;;;;;1.85;1.73;;;;;;;5.24;73.71;99775.28;5034616;28;20042;-70
2021/03/20 05:18:58;;;;;;;1.65;1.50;;;;;;;5.14;73.70;99778.44;5033918;28;20041;-70
2021/03/20 05:21:36;;;;;;;1.85;1.73;;;;;;;5.20;74.58;99768.00;5034804;28;20203;-70
2021/03/20 05:24:02;;;;;;;1.23;1.20;;;;;;;5.24;74.62;99775.28;5034163;28;20029;-70
2021/03/20 05:26:32;;;;;;;1.55;1.45;;;;;;;5.17;74.54;99769.50;5034403;28;20395;-70
2021/03/20 05:28:58;;;;;;;1.48;1.38;;;;;;;5.18;74.26;99773.88;5034367;28;20399;-70
2021/03/20 05:31:25;;;;;;;1.48;1.38;;;;;;;5.21;74.35;99781.44;5034064;28;20083;-70
2021/03/20 05:33:51;;;;;;;1.55;1.45;;;;;;;5.19;74.14;99786.50;5034247;28;20048;-68
2021/03/20 05:36:17;;;;;;;1.42;1.20;;;;;;;5.17;74.64;99780.53;5035568;28;20415;-68
2021/03/20 05:38:44;;;;;;;1.65;1.40;;;;;;;5.23;74.61;99768.16;5034444;28;20560;-69
2021/03/20 05:41:28;;;;;;;1.40;1.30;;;;;;;5.21;74.06;99786.16;5035449;28;20546;-68
2021/03/20 05:44:12;;;;;;;1.13;1.10;;;;;;;5.38;73.63;99785.22;5034163;28;20064;-68
2021/03/20 05:47:25;;;;;;;1.52;1.42;;;;;;;5.33;73.56;99789.00;5034062;28;20056;-68
2021/03/20 05:50:15;;;;;;;1.65;1.52;;;;;;;5.32;73.59;99772.78;5031228;28;20044;-68
2021/03/20 05:52:55;;;;;;;1.48;1.38;;;;;;;5.40;73.07;99777.41;5033647;28;20030;-68
2021/03/20 05:55:24;;;;;;;1.50;1.40;;;;;;;5.39;73.71;99779.38;5033630;28;20156;-68
2021/03/20 05:58:41;;;;;;;1.50;1.40;;;;;;;5.59;72.59;99780.47;5033810;28;20535;-68
2021/03/20 06:01:31;;;;;;;1.50;1.40;;;;;;;5.48;72.89;99785.59;5022018;28;20132;-68
2021/03/20 06:03:56;;;;;;;2.22;1.75;;;;;;;5.49;72.30;99786.44;5033447;28;20068;-68
2021/03/20 06:06:41;;;;;;;1.70;1.60;;;;;;;5.50;72.29;99788.03;5033395;28;20033;-68
2021/03/20 06:09:43;;;;;;;2.10;1.90;;;;;;;5.57;71.68;99788.28;5033327;28;20033;-68
2021/03/20 06:12:27;;;;;;;1.60;1.50;;;;;;;5.54;71.98;99797.28;5033325;28;20057;-69
2021/03/20 06:15:12;;;;;;;5.13;4.82;;;;;;;5.52;71.67;99796.78;5034723;28;20472;-69
2021/03/20 06:17:56;;;;;;;2.17;1.98;;;;;;;5.41;70.53;99795.59;5034997;28;20029;-68
2021/03/20 06:20:55;;;;;;;1.38;1.27;;;;;;;5.42;68.29;99794.44;5036590;28;20048;-68
2021/03/20 06:23:42;;;;;;;1.30;1.20;;;;;;;5.04;68.42;99709.09;5036334;28;20029;-68
2021/03/20 06:26:18;;;;;;;1.45;1.25;;;;;;;5.64;68.34;99776.69;5036816;28;20375;-70
2021/03/20 06:28:51;;;;;;;1.05;1.00;;;;;;;5.84;68.77;99781.38;5036273;28;20041;-70
2021/03/20 06:31:33;;;;;;;1.35;1.25;;;;;;;5.91;68.33;99780.81;5036196;28;20021;-70
2021/03/20 06:34:05;;;;;;;1.00;1.00;;;;;;;5.90;66.88;99779.19;5036104;28;20079;-71
2021/03/20 06:36:39;;;;;;;1.13;1.02;;;;;;;6.14;66.70;99782.06;5036154;28;20509;-70
2021/03/20 06:39:20;;;;;;;1.10;1.00;;;;;;;6.02;66.37;99784.81;5036702;28;20037;-70
2021/03/20 06:41:52;;;;;;;0.80;0.80;;;;;;;5.95;65.65;99782.56;5036340;28;20066;-70
2021/03/20 06:44:32;;;;;;;0.95;0.95;;;;;;;6.22;67.15;99780.31;5036629;28;20420;-70
2021/03/20 06:46:58;;;;;;;1.40;1.30;;;;;;;6.37;65.92;99776.88;5036311;28;20029;-70
2021/03/20 06:49:27;;;;;;;1.83;1.73;;;;;;;6.51;66.33;99793.94;5036455;28;20029;-70
2021/03/20 06:51:54;;;;;;;2.10;1.90;;;;;;;6.68;65.73;99794.88;5036074;28;20036;-71
2021/03/20 06:54:21;;;;;;;3.20;2.90;;;;;;;6.82;64.35;99793.38;5053443;28;20025;-70
2021/03/20 06:56:50;;;;;;;2.90;2.55;;;;;;;6.86;64.91;99796.22;5036176;28;20119;-70
2021/03/20 06:59:16;;;;;;;1.88;1.77;;;;;;;6.91;64.39;99797.94;5035813;28;20033;-71
2021/03/20 07:01:53;;;;;;;2.08;1.70;;;;;;;7.02;63.48;99801.84;5036156;28;20120;-70
2021/03/20 07:04:39;;;;;;;2.22;1.30;;;;;;;6.83;63.50;99794.97;5053683;28;20119;-70
2021/03/20 07:07:17;;;;;;;1.63;1.27;;;;;;;6.67;63.11;99807.88;5036312;28;20029;-70
2021/03/20 07:09:45;;;;;;;1.23;1.13;;;;;;;6.82;63.59;99798.91;5054194;28;20108;-70
2021/03/20 07:12:21;;;;;;;1.13;1.13;;;;;;;7.00;63.56;99804.97;5035739;28;20120;-71
2021/03/20 07:14:58;;;;;;;1.83;1.73;;;;;;;7.18;63.87;99804.72;5035616;28;20028;-70
2021/03/20 07:17:23;;;;;;;3.15;2.60;;;;;;;7.02;63.58;99779.72;5035496;28;20033;-70
2021/03/20 07:20:07;;;;;;;2.00;1.80;;;;;;;7.14;64.01;99810.16;5035660;28;20025;-71
2021/03/20 07:22:32;;;;;;;4.85;1.90;;;;;;;7.27;63.91;99808.97;5036181;28;20033;-71
2021/03/20 07:25:01;;;;;;;3.95;2.67;;;;;;;7.45;64.96;99814.22;5036491;28;20040;-71
2021/03/20 07:27:35;;;;;;;2.75;1.90;;;;;;;7.43;62.76;99809.03;5035846;28;20053;-70
2021/03/20 07:30:08;;;;;;;2.28;2.08;;;;;;;7.48;62.74;99807.97;5036136;28;20041;-70
2021/03/20 07:32:40;;;;;;;4.43;1.70;;;;;;;7.59;62.22;99809.09;5019598;28;20037;-70
2021/03/20 07:35:35;;;;;;;2.47;2.28;;;;;;;7.82;62.42;99804.59;5038564;28;20057;-70
2021/03/20 07:38:26;;;;;;;2.33;2.13;;;;;;;7.87;62.26;99798.00;5026489;28;20432;-70
2021/03/20 07:41:05;;;;;;;2.30;2.10;;;;;;;7.93;61.44;99795.78;5039462;28;20029;-70
2021/03/20 07:43:31;;;;;;;2.55;2.35;;;;;;;8.08;61.38;99803.31;5039585;28;20028;-70
2021/03/20 07:46:16;;;;;;;3.25;2.42;;;;;;;8.21;61.27;99801.28;5039374;28;20025;-71
2021/03/20 07:48:44;;;;;;;2.55;2.35;;;;;;;8.51;61.52;99804.44;5057440;28;20031;-71
2021/03/20 07:51:16;;;;;;;2.53;2.20;;;;;;;8.77;60.38;99793.59;5039283;28;20033;-70
2021/03/20 07:53:46;;;;;;;2.80;2.60;;;;;;;9.13;59.94;99789.69;5039655;28;20040;-71
2021/03/20 07:56:26;;;;;;;2.53;2.33;;;;;;;9.46;57.48;99785.63;5038957;28;20123;-71
2021/03/20 07:59:01;;;;;;;3.50;3.17;;;;;;;9.53;56.17;99787.72;5039688;28;20136;-70
2021/03/20 08:01:33;;;;;;;2.45;2.30;;;;;;;9.29;55.33;99788.84;5039084;28;20067;-70
2021/03/20 08:04:05;;;;;;;2.42;2.22;;;;;;;9.44;55.29;99774.88;5039281;28;20021;-71
2021/03/20 08:06:30;;;;;;;2.03;1.90;;;;;;;9.60;54.01;99782.34;5039003;28;20557;-71
2021/03/20 08:09:22;;;;;;;1.75;1.65;;;;;;;9.22;53.28;99778.38;5039525;28;20029;-70
2021/03/20 08:12:07;;;;;;;1.45;1.35;;;;;;;9.28;53.50;99776.94;5039702;28;20033;-71
2021/03/20 08:14:42;;;;;;;1.92;1.77;;;;;;;9.16;52.64;99768.72;5039029;28;20025;-70
2021/03/20 08:17:12;;;;;;;1.70;1.60;;;;;;;9.86;52.31;99768.56;5038796;28;20033;-71
2021/03/20 08:19:39;;;;;;;1.80;1.70;;;;;;;10.10;50.98;99767.41;5038141;28;20492;-71
2021/03/20 08:22:34;;;;;;;1.90;1.70;;;;;;;10.03;50.59;99731.16;5038890;28;20782;-71
2021/03/20 08:25:37;;;;;;;2.13;1.92;;;;;;;11.01;50.28;99777.66;5035406;28;20515;-70
2021/03/20 08:28:32;;;;;;;1.90;1.80;;;;;;;11.34;48.48;99783.69;5039522;28;20028;-68
2021/03/20 08:31:20;;;;;;;1.85;1.75;;;;;;;10.75;49.24;99786.00;5040207;28;20120;-67
2021/03/20 08:34:30;;;;;;;1.85;1.67;;;;;;;10.69;49.52;99787.50;5039470;28;20083;-67
2021/03/20 08:37:42;;;;;;;1.35;1.20;;;;;;;10.42;50.50;99793.03;5035005;28;20052;-67
2021/03/20 08:40:29;;;;;;;1.58;1.42;;;;;;;10.65;49.22;99784.69;5024549;28;20395;-67
2021/03/20 08:42:55;;;;;;;1.52;1.42;;;;;;;10.65;48.65;99758.81;5038840;28;20352;-67
2021/03/20 08:45:35;;;;;;;2.45;2.28;;;;;;;11.14;47.17;99788.59;5036937;28;20078;-68
2021/03/20 08:48:25;;;;;;;6.78;4.10;;;;;;;10.73;47.87;99786.41;5057290;28;20057;-68
2021/03/20 08:51:15;;;;;;;3.33;3.13;;;;;;;10.38;49.69;99786.59;5040334;28;20021;-69
2021/03/20 08:53:50;;;;;;;8.20;7.43;;;;;;;9.98;48.31;99751.72;5055649;28;20029;-69
2021/03/20 08:56:41;;;;;;;6.75;6.10;;;;;;;10.08;49.25;99780.09;5038897;28;20028;-68
2021/03/20 08:59:16;;;;;;;2.60;2.40;;;;;;;10.39;50.22;99774.31;5033877;28;20043;-68
2021/03/20 09:01:57;;;;;;;1.85;1.75;;;;;;;10.21;48.44;99762.03;5037967;28;20025;-68
2021/03/20 09:04:32;;;;;;;2.22;2.00;;;;;;;9.96;48.02;99789.41;5038257;28;20086;-68
2021/03/20 09:07:04;;;;;;;1.80;1.70;;;;;;;9.66;48.74;99761.44;5056323;28;20051;-68
2021/03/20 09:09:58;;;;;;;4.32;2.45;;;;;;;9.95;48.89;99785.00;5038363;28;20033;-68
2021/03/20 09:12:29;;;;;;;1.50;1.40;;;;;;;10.36;48.11;99780.63;5035473;28;20036;-68
2021/03/20 09:15:03;;;;;;;1.50;1.40;;;;;;;10.36;47.74;99788.16;5038415;28;20041;-70
2021/03/20 09:17:33;;;;;;;5.00;4.50;;;;;;;10.60;46.45;99786.97;5037493;28;20033;-70
2021/03/20 09:20:23;;;;;;;2.33;2.13;;;;;;;10.51;47.46;99758.63;5037612;28;20025;-70
2021/03/20 09:22:53;;;;;;;4.15;2.22;;;;;;;10.41;47.98;99780.31;5038085;28;20545;-69
2021/03/20 09:25:31;;;;;;;2.35;2.00;;;;;;;10.04;48.65;99776.44;5037485;28;20031;-68
2021/03/20 09:28:13;;;;;;;1.70;1.60;;;;;;;9.96;50.06;99773.53;5037989;28;20051;-68
2021/03/20 09:30:53;;;;;;;1.33;1.23;;;;;;;9.94;48.59;99772.28;5037409;28;20025;-67
2021/03/20 09:33:27;;;;;;;1.45;1.35;;;;;;;10.14;48.08;99778.59;5037257;28;20116;-67
2021/03/20 09:36:00;;;;;;;1.98;1.55;;;;;;;10.27;47.26;99770.91;5037886;28;20414;-68
2021/03/20 09:38:34;;;;;;;21.00;13.30;;;;;;;10.30;47.83;99773.75;5038175;28;20426;-68
2021/03/20 09:41:30;;;;;;;2.83;1.40;;;;;;;10.44;48.23;99768.44;5037592;28;20541;-68
2021/03/20 09:43:58;;;;;;;2.35;2.15;;;;;;;10.73;47.33;99777.25;5037563;28;20036;-68
2021/03/20 09:46:39;;;;;;;1.55;1.45;;;;;;;10.36;48.31;99780.63;5037227;28;20029;-68
2021/03/20 09:49:08;;;;;;;3.83;3.20;;;;;;;10.13;49.42;99788.94;5037671;28;20166;-68
2021/03/20 09:51:49;;;;;;;4.60;3.17;;;;;;;10.14;49.45;99775.81;5037270;28;20025;-68
2021/03/20 09:57:28;;;;;;;2.08;1.63;;;;;;;10.33;48.74;99775.78;5054638;28;20059;-69
2021/03/20 09:59:54;;;;;;;12.97;8.47;;;;;;;10.19;48.80;99778.31;5054210;28;20073;-69
2021/03/20 10:02:22;;;;;;;10.30;7.65;;;;;;;10.43;48.44;99777.94;5054407;28;20028;-69
2021/03/20 10:05:30;;;;;;;12.35;8.10;;;;;;;9.95;48.62;99785.81;5036787;28;20040;-70
2021/03/20 10:07:59;;;;;;;2.33;2.13;;;;;;;10.12;48.69;99780.94;4973475;28;20031;-69
2021/03/20 10:10:27;;;;;;;5.93;3.83;;;;;;;10.14;48.34;99784.97;4957266;28;20516;-69
2021/03/20 10:13:12;;;;;;;2.65;2.20;;;;;;;10.35;48.06;99787.34;4999613;28;20476;-70
2021/03/20 10:15:59;;;;;;;2.88;1.80;;;;;;;10.31;48.02;99780.13;5036594;28;20032;-69
2021/03/20 10:18:32;;;;;;;1.60;1.50;;;;;;;10.34;48.29;99794.09;5036297;28;20049;-70
2021/03/20 10:21:01;;;;;;;2.75;1.98;;;;;;;10.84;46.60;99789.34;5036428;28;20112;-69
2021/03/20 10:23:42;;;;;;;1.30;1.20;;;;;;;10.92;44.63;99785.50;5036376;28;20033;-69
2021/03/20 10:26:30;;;;;;;1.15;1.13;;;;;;;11.40;44.16;99783.00;5036416;28;20064;-69
2021/03/20 10:29:06;;;;;;;1.60;1.50;;;;;;;11.97;44.42;99777.31;5054420;28;20364;-69
2021/03/20 10:31:41;;;;;;;1.45;1.35;;;;;;;11.94;44.32;99781.69;5054454;28;20112;-69
2021/03/20 10:34:13;;;;;;;1.60;1.30;;;;;;;11.64;43.39;99775.31;5036733;28;20438;-68
2021/03/20 10:36:42;;;;;;;1.60;1.50;;;;;;;11.99;43.30;99772.16;5036210;28;20116;-68
2021/03/20 10:39:28;;;;;;;2.70;1.55;;;;;;;11.94;44.21;99773.31;5037073;28;20470;-68
2021/03/20 10:42:06;;;;;;;1.40;1.30;;;;;;;11.92;42.87;99764.50;5037119;28;20592;-69
2021/03/20 10:44:38;;;;;;;1.33;1.23;;;;;;;11.66;44.42;99761.78;5038570;28;20111;-68
2021/03/20 10:47:15;;;;;;;1.55;1.45;;;;;;;11.46;46.35;99756.41;5036761;28;20487;-68
2021/03/20 10:49:58;;;;;;;2.05;1.63;;;;;;;11.57;45.28;99750.16;5036775;28;20041;-69
2021/03/20 10:52:29;;;;;;;1.88;1.77;;;;;;;11.80;44.84;99761.97;5036357;28;20028;-69
2021/03/20 10:54:59;;;;;;;1.40;1.27;;;;;;;10.92;46.15;99752.09;5036323;28;20078;-69
2021/03/20 10:57:29;;;;;;;3.17;2.30;;;;;;;10.88;47.22;99740.09;5037316;28;20102;-69
2021/03/20 10:59:54;;;;;;;1.95;1.85;;;;;;;10.71;47.36;99751.78;5036793;28;20025;-69
2021/03/20 11:02:28;;;;;;;1.70;1.60;;;;;;;10.88;46.70;99745.69;5036404;28;20044;-68
2021/03/20 11:05:30;;;;;;;1.90;1.67;;;;;;;11.21;45.87;99736.59;5035701;28;20116;-69
2021/03/20 11:08:01;;;;;;;2.55;1.10;;;;;;;11.12;45.73;99733.28;5036167;28;20025;-69
2021/03/20 11:10:34;;;;;;;1.80;1.70;;;;;;;11.00;46.34;99734.31;5036289;28;20182;-70
2021/03/20 11:13:09;;;;;;;1.42;1.33;;;;;;;11.23;46.04;99727.84;5035812;28;20044;-69
2021/03/20 11:15:37;;;;;;;1.50;1.40;;;;;;;11.78;45.20;99722.53;5037129;28;20463;-68
2021/03/20 11:18:14;;;;;;;1.67;1.58;;;;;;;11.74;44.50;99719.69;5017412;28;20049;-69
2021/03/20 11:20:41;;;;;;;1.15;1.10;;;;;;;11.74;43.72;99718.91;5032893;28;20041;-69
2021/03/20 11:23:19;;;;;;;2.20;1.63;;;;;;;11.43;44.84;99712.56;5032353;28;20124;-69
2021/03/20 11:25:45;;;;;;;4.68;1.40;;;;;;;12.04;43.78;99716.84;5032664;28;20482;-70
2021/03/20 11:28:35;;;;;;;0.90;0.90;;;;;;;11.58;43.77;99721.13;5032884;28;20026;-69
2021/03/20 11:31:05;;;;;;;2.95;2.30;;;;;;;12.18;43.29;99693.84;5032623;28;20029;-68
2021/03/20 11:33:35;;;;;;;1.52;1.42;;;;;;;12.55;42.33;99704.91;5032899;28;20109;-68
2021/03/20 11:36:03;;;;;;;1.77;1.65;;;;;;;12.53;43.13;99715.66;5033772;28;20532;-68
2021/03/20 11:38:29;;;;;;;1.25;1.15;;;;;;;12.50;41.99;99704.47;5032723;28;20120;-69
2021/03/20 11:40:54;;;;;;;1.40;1.30;;;;;;;12.38;42.96;99700.00;5033068;28;20575;-68
2021/03/20 11:43:28;;;;;;;1.58;1.48;;;;;;;12.11;43.38;99704.16;5032597;28;20026;-69
2021/03/20 11:46:07;;;;;;;2.28;2.05;;;;;;;11.97;44.26;99700.03;5032501;28;20037;-69
2021/03/20 11:48:50;;;;;;;2.30;2.10;;;;;;;11.61;44.82;99704.44;5033423;28;20036;-69
2021/03/20 11:51:23;;;;;;;2.45;2.30;;;;;;;11.66;45.37;99692.13;5033766;28;20553;-68
2021/03/20 11:53:54;;;;;;;2.50;2.30;;;;;;;11.05;46.03;99698.97;5032327;28;20456;-69
2021/03/20 11:56:26;;;;;;;1.77;1.67;;;;;;;10.71;46.94;99682.22;5033685;28;20257;-69
2021/03/20 11:59:18;;;;;;;2.95;1.67;;;;;;;10.88;46.75;99681.66;5033692;28;20464;-69
2021/03/20 12:01:47;;;;;;;3.47;3.17;;;;;;;11.06;47.00;99670.75;5008264;28;20046;-69
2021/03/20 12:04:24;;;;;;;3.88;2.70;;;;;;;11.07;46.67;99666.78;5032131;28;20083;-70
2021/03/20 12:06:51;;;;;;;1.42;1.30;;;;;;;10.86;46.32;99664.53;5033224;28;20099;-69
2021/03/20 12:09:22;;;;;;;3.17;2.80;;;;;;;11.38;47.26;99668.34;5032336;28;20071;-69
2021/03/20 12:11:48;;;;;;;3.75;3.00;;;;;;;11.40;46.27;99667.97;5031920;28;20033;-69
2021/03/20 12:14:32;;;;;;;1.67;1.58;;;;;;;11.15;46.54;99670.47;5031840;28;20026;-69
2021/03/20 12:17:06;;;;;;;2.30;2.05;;;;;;;11.05;47.53;99676.69;5031923;28;20037;-69
2021/03/20 12:19:36;;;;;;;2.50;2.30;;;;;;;10.92;48.27;99671.38;5031953;28;20140;-69
2021/03/20 12:22:15;;;;;;;2.53;1.70;;;;;;;10.84;48.45;99664.09;5035506;28;20055;-69
2021/03/20 12:24:51;;;;;;;2.33;1.65;;;;;;;10.51;49.57;99683.50;5035157;28;20116;-69